Site contains unofficial IBTrACS data. Visit the IBTrACS Website to access archived data.

1899 NOT_NAMED (1899266N25133)


IBTrACS version v04r00. Visit IBTrACS website for data access.
Please direct all questions to the IBTrACS Q and A forum

Storm track - Intensity - Wind Radii - Intensity Data - Source Data - All data

Summary Information

Storm ID 1899266N25133
Start Sep 22 16Z
End Sep 27 04Z
ATCF IDs
Track status Best track data.

Storm track plot

Map of storm track

Intensity plots

No Intensity information for this storm


Radial wind information

No radial wind information for this storm


Position and Intensity Table

BASIN ISO_TIME_________ NATURE LAT LON
degrees north degrees east
WP 1899-09-22 16:00:00 NR 25.10 133.20
WP 18:00:00 NR 25.12 133.04
WP 21:00:00 NR 25.15 132.81
WP 1899-09-23 00:00:00 NR 25.17 132.56
WP 03:00:00 NR 25.19 132.29
WP 04:00:00 NR 25.20 132.20
WP 06:00:00 NR 25.21 132.01
WP 09:00:00 NR 25.22 131.70
WP 12:00:00 NR 25.22 131.40
WP 15:00:00 NR 25.21 131.10
WP 16:00:00 NR 25.20 131.00
WP 18:00:00 NR 25.18 130.84
WP 21:00:00 NR 25.14 130.60
WP 1899-09-24 00:00:00 NR 25.08 130.36
WP 03:00:00 NR 25.02 130.10
WP 04:00:00 NR 25.00 130.00
WP 06:00:00 NR 24.96 129.78
WP 09:00:00 NR 24.90 129.41
WP 12:00:00 NR 24.82 129.02
WP 15:00:00 NR 24.73 128.63
WP 16:00:00 NR 24.70 128.50
WP 18:00:00 NR 24.63 128.26
WP 21:00:00 NR 24.51 127.90
WP 1899-09-25 00:00:00 NR 24.38 127.55
WP 03:00:00 NR 24.24 127.21
WP 04:00:00 NR 24.20 127.10
WP 06:00:00 NR 24.12 126.89
WP 09:00:00 NR 24.00 126.60
WP 12:00:00 NR 23.87 126.31
WP 15:00:00 NR 23.74 126.00
WP 16:00:00 NR 23.70 125.90
WP 18:00:00 NR 23.61 125.69
WP 21:00:00 NR 23.48 125.35
WP 1899-09-26 00:00:00 NR 23.33 125.00
WP 03:00:00 NR 23.16 124.63
WP 04:00:00 NR 23.10 124.50
WP 06:00:00 NR 22.97 124.23
WP 09:00:00 NR 22.76 123.81
WP 12:00:00 NR 22.52 123.38
WP 15:00:00 NR 22.28 122.94
WP 16:00:00 NR 22.20 122.80
WP 18:00:00 NR 22.04 122.52
WP 21:00:00 NR 21.79 122.11
WP 1899-09-27 00:00:00 NR 21.54 121.72
WP 03:00:00 NR 21.28 121.33
WP 04:00:00 NR 21.20 121.20

Source Information

Agency Information
USA
TOKYO
CMA
HKO
NEWDELHI
REUNION
BOM
NADI
WELLINGTON
DS824
TD9636 cons_worldwide_trop_cyclone_18710101-19891231-003:Line=2026
TD9635
NEUMANN
MLC

All available IBTrACS Data

SEASON BASIN SUBBASIN ISO_TIME_________ NATURE LAT LON DIST2LAND LANDFALL IFLAG USA SSHS TD9636 LAT TD9636 LON TD9636 STAGE STORM SPEED STORM DIR
Year degrees north degrees east km km 1 degrees north degrees east kts degrees
1899 WP MM 1899-09-22 16:00:00 NR 25.10 133.20 702 696 __________O___ -1 25.10 133.20 7 4 278
1899 WP MM 18:00:00 NR 25.12 133.04 696 690 __________P___ -1 25.12 133.04 7 4 277
1899 WP MM 21:00:00 NR 25.15 132.81 690 673 __________P___ -1 25.15 132.81 7 4 277
1899 WP MM 1899-09-23 00:00:00 NR 25.17 132.56 673 666 __________P___ -1 25.17 132.56 7 5 276
1899 WP MM 03:00:00 NR 25.19 132.29 666 664 __________P___ -1 25.19 132.29 7 5 275
1899 WP MM 04:00:00 NR 25.20 132.20 664 659 __________O___ -1 25.20 132.20 7 5 274
1899 WP MM 06:00:00 NR 25.21 132.01 659 654 __________P___ -1 25.21 132.01 7 5 273
1899 WP MM 09:00:00 NR 25.22 131.70 654 651 __________P___ -1 25.22 131.70 7 6 271
1899 WP MM 12:00:00 NR 25.22 131.40 651 648 __________P___ -1 25.22 131.40 7 5 269
1899 WP MM 15:00:00 NR 25.21 131.10 648 648 __________P___ -1 25.21 131.10 7 5 267
1899 WP MM 16:00:00 NR 25.20 131.00 648 647 __________O___ -1 25.20 131.00 7 5 263
1899 WP MM 18:00:00 NR 25.18 130.84 647 647 __________P___ -1 25.18 130.84 7 4 260
1899 WP MM 21:00:00 NR 25.14 130.60 658 658 __________P___ -1 25.14 130.60 7 4 257
1899 WP MM 1899-09-24 00:00:00 NR 25.08 130.36 659 659 __________P___ -1 25.08 130.36 7 5 256
1899 WP MM 03:00:00 NR 25.02 130.10 672 672 __________P___ -1 25.02 130.10 7 5 256
1899 WP MM 04:00:00 NR 25.00 130.00 673 673 __________O___ -1 25.00 130.00 3 6 258
1899 WP MM 06:00:00 NR 24.96 129.78 675 675 __________P___ -1 24.96 129.78 3 7 259
1899 WP MM 09:00:00 NR 24.90 129.41 692 692 __________P___ -1 24.90 129.41 3 7 258
1899 WP MM 12:00:00 NR 24.82 129.02 705 666 __________P___ -1 24.82 129.02 3 7 257
1899 WP MM 15:00:00 NR 24.73 128.63 666 656 __________P___ -1 24.73 128.63 3 7 256
1899 WP MM 16:00:00 NR 24.70 128.50 656 636 __________O___ -1 24.70 128.50 4 7 253
1899 WP MM 18:00:00 NR 24.63 128.26 637 597 __________P___ -1 24.63 128.26 4 7 251
1899 WP MM 21:00:00 NR 24.51 127.90 597 559 __________P___ -1 24.51 127.90 4 7 249
1899 WP MM 1899-09-25 00:00:00 NR 24.38 127.55 559 530 __________P___ -1 24.38 127.55 4 7 247
1899 WP MM 03:00:00 NR 24.24 127.21 532 522 __________P___ -1 24.24 127.21 4 7 246
1899 WP MM 04:00:00 NR 24.20 127.10 522 505 __________O___ -1 24.20 127.10 4 6 247
1899 WP MM 06:00:00 NR 24.12 126.89 505 478 __________P___ -1 24.12 126.89 4 6 246
1899 WP MM 09:00:00 NR 24.00 126.60 478 450 __________P___ -1 24.00 126.60 4 6 246
1899 WP MM 12:00:00 NR 23.87 126.31 450 423 __________P___ -1 23.87 126.31 4 6 245
1899 WP MM 15:00:00 NR 23.74 126.00 425 415 __________P___ -1 23.74 126.00 4 6 245
1899 WP MM 16:00:00 NR 23.70 125.90 415 398 __________O___ -1 23.70 125.90 4 6 246
1899 WP MM 18:00:00 NR 23.61 125.69 398 372 __________P___ -1 23.61 125.69 4 7 246
1899 WP MM 21:00:00 NR 23.48 125.35 372 342 __________P___ -1 23.48 125.35 4 7 246
1899 WP MM 1899-09-26 00:00:00 NR 23.33 125.00 342 310 __________P___ -1 23.33 125.00 4 7 245
1899 WP MM 03:00:00 NR 23.16 124.63 310 307 __________P___ -1 23.16 124.63 4 8 244
1899 WP MM 04:00:00 NR 23.10 124.50 307 286 __________O___ -1 23.10 124.50 4 8 242
1899 WP MM 06:00:00 NR 22.97 124.23 286 247 __________P___ -1 22.97 124.23 4 9 242
1899 WP MM 09:00:00 NR 22.76 123.81 247 212 __________P___ -1 22.76 123.81 4 9 241
1899 WP MM 12:00:00 NR 22.52 123.38 215 177 __________P___ -1 22.52 123.38 4 9 239
1899 WP MM 15:00:00 NR 22.28 122.94 177 175 __________P___ -1 22.28 122.94 4 9 239
1899 WP MM 16:00:00 NR 22.20 122.80 175 164 __________O___ -1 22.20 122.80 4 9 238
1899 WP MM 18:00:00 NR 22.04 122.52 164 124 __________P___ -1 22.04 122.52 4 9 237
1899 WP MM 21:00:00 NR 21.79 122.11 124 93 __________P___ -1 21.79 122.11 4 9 236
1899 WP MM 1899-09-27 00:00:00 NR 21.54 121.72 93 76 __________P___ -1 21.54 121.72 4 9 235
1899 WP MM 03:00:00 NR 21.28 121.33 78 78 __________P___ -1 21.28 121.33 4 9 235
1899 WP MM 04:00:00 NR 21.20 121.20 84 __________O___ -1 21.20 121.20 4 9 235